Time;durP1;ratioP1;P1;durP2;ratioP2;P2;SDS_P1;SDS_P2;PMS_P1;PMS_P2;Temp;Humidity;BMP_temperature;BMP_pressure;BME280_temperature;BME280_humidity;BME280_pressure;Samples;Min_cycle;Max_cycle;Signal;HPM_P1;HPM_P2
2021/12/26 00:00:59;;;;;;;137.48;54.22;;;6.40;99.90;;;;;;5026667;28;20053;-76
2021/12/26 00:03:29;;;;;;;133.45;52.88;;;6.40;99.90;;;;;;5025276;28;20046;-75
2021/12/26 00:06:00;;;;;;;130.98;53.03;;;6.40;99.90;;;;;;5041680;28;20057;-74
2021/12/26 00:08:28;;;;;;;143.23;54.53;;;6.40;99.90;;;;;;5025354;28;20046;-76
2021/12/26 00:10:55;;;;;;;140.90;54.88;;;6.40;99.90;;;;;;5024850;28;20533;-74
2021/12/26 00:13:23;;;;;;;142.63;56.03;;;6.30;99.90;;;;;;5021354;28;20046;-74
2021/12/26 00:15:51;;;;;;;151.55;55.03;;;6.40;99.90;;;;;;5005211;28;20386;-74
2021/12/26 00:18:19;;;;;;;148.18;55.85;;;6.30;99.90;;;;;;5006493;28;20050;-73
2021/12/26 00:20:47;;;;;;;146.45;57.92;;;6.40;99.90;;;;;;5006575;28;20057;-76
2021/12/26 00:23:16;;;;;;;151.27;56.92;;;6.30;99.90;;;;;;5006898;28;20057;-73
2021/12/26 00:25:44;;;;;;;145.73;56.42;;;6.30;99.90;;;;;;5025871;28;20522;-74
2021/12/26 00:28:12;;;;;;;146.05;56.65;;;6.30;99.90;;;;;;5026393;28;20060;-74
2021/12/26 00:30:40;;;;;;;157.02;58.30;;;6.30;99.90;;;;;;5025068;28;20398;-73
2021/12/26 00:33:08;;;;;;;154.57;58.28;;;6.30;99.90;;;;;;5026019;28;20776;-75
2021/12/26 00:35:36;;;;;;;145.38;56.13;;;6.30;99.90;;;;;;5024726;28;20049;-74
2021/12/26 00:38:04;;;;;;;151.48;55.47;;;6.30;99.90;;;;;;5008148;28;20064;-73
2021/12/26 00:40:32;;;;;;;138.90;56.42;;;6.30;99.90;;;;;;5024668;28;20046;-74
2021/12/26 00:43:00;;;;;;;153.23;56.05;;;6.30;99.90;;;;;;5012551;28;20050;-75
2021/12/26 00:45:29;;;;;;;158.20;57.22;;;6.30;99.90;;;;;;5005172;28;20060;-73
2021/12/26 00:47:56;;;;;;;151.27;56.95;;;6.30;99.90;;;;;;5005124;28;20045;-75
2021/12/26 00:50:30;;;;;;;167.48;57.38;;;6.30;99.90;;;;;;5004560;28;20053;-75
2021/12/26 00:52:58;;;;;;;156.07;56.78;;;6.30;99.90;;;;;;5020928;28;20079;-73
2021/12/26 00:55:27;;;;;;;160.57;58.67;;;6.30;99.90;;;;;;5024842;28;20038;-74
2021/12/26 00:57:56;;;;;;;157.02;57.92;;;6.30;99.90;;;;;;5020381;28;20050;-73
2021/12/26 01:00:28;;;;;;;162.50;59.28;;;6.40;99.90;;;;;;5005800;28;20050;-74
2021/12/26 01:03:00;;;;;;;170.18;61.50;;;6.30;99.90;;;;;;5004587;28;20050;-74
2021/12/26 01:05:30;;;;;;;167.57;60.40;;;6.30;99.90;;;;;;5004151;28;20050;-73
2021/12/26 01:08:00;;;;;;;173.43;65.43;;;6.30;99.90;;;;;;5004006;28;20655;-74
2021/12/26 01:10:35;;;;;;;170.73;62.92;;;6.30;99.90;;;;;;5003520;28;20061;-73
2021/12/26 01:13:15;;;;;;;165.98;60.25;;;6.30;99.90;;;;;;5004442;28;20061;-75
2021/12/26 01:15:47;;;;;;;158.05;58.47;;;6.30;99.90;;;;;;5003591;28;20050;-74
2021/12/26 01:18:22;;;;;;;159.10;56.38;;;6.30;99.90;;;;;;5019839;28;20065;-74
2021/12/26 01:21:03;;;;;;;150.73;54.30;;;6.30;99.90;;;;;;5020299;28;20486;-74
2021/12/26 01:23:31;;;;;;;165.68;57.67;;;6.30;99.90;;;;;;5019086;28;20053;-73
2021/12/26 01:26:00;;;;;;;158.90;55.35;;;6.20;99.90;;;;;;5007749;28;20459;-72
2021/12/26 01:28:30;;;;;;;158.05;54.90;;;6.30;99.90;;;;;;5007424;28;20436;-73
2021/12/26 01:31:03;;;;;;;164.05;55.97;;;6.30;99.90;;;;;;5007841;28;20053;-73
2021/12/26 01:33:35;;;;;;;158.65;54.92;;;6.30;99.90;;;;;;5024001;28;20042;-72
2021/12/26 01:36:22;;;;;;;160.80;53.40;;;6.30;99.90;;;;;;5023874;28;20049;-72
2021/12/26 01:38:55;;;;;;;165.63;52.85;;;6.30;99.90;;;;;;5023565;28;20497;-73
2021/12/26 01:41:31;;;;;;;162.05;52.78;;;6.30;99.90;;;;;;5008955;28;20045;-72
2021/12/26 01:44:12;;;;;;;163.93;54.08;;;6.40;99.90;;;;;;5024219;28;20049;-73
2021/12/26 01:46:48;;;;;;;171.30;57.75;;;6.30;99.90;;;;;;5024279;28;20471;-73
2021/12/26 01:49:22;;;;;;;183.00;64.50;;;6.30;99.90;;;;;;5023945;28;20057;-72
2021/12/26 01:51:53;;;;;;;195.00;71.07;;;6.30;99.90;;;;;;5024218;28;20056;-73
2021/12/26 01:57:00;;;;;;;177.95;67.93;;;6.30;99.90;;;;;;5004460;28;20045;-75
2021/12/26 01:59:29;;;;;;;194.48;69.88;;;6.30;99.90;;;;;;5007490;28;20052;-74
2021/12/26 02:02:07;;;;;;;187.95;67.60;;;6.30;99.90;;;;;;4991471;28;20046;-73
2021/12/26 02:04:40;;;;;;;178.82;67.65;;;6.20;99.90;;;;;;5017647;28;20049;-73
2021/12/26 02:07:10;;;;;;;165.07;62.30;;;6.20;99.90;;;;;;5011169;28;20045;-73
2021/12/26 02:09:41;;;;;;;176.75;65.30;;;6.20;99.90;;;;;;5018102;28;20045;-74
2021/12/26 02:12:15;;;;;;;166.25;64.20;;;6.20;99.90;;;;;;5007737;28;20041;-72
2021/12/26 02:14:42;;;;;;;169.57;63.08;;;6.10;99.90;;;;;;5007603;28;20482;-73
2021/12/26 02:17:30;;;;;;;;;;;6.10;99.90;;;;;;5009105;28;20061;-74
2021/12/26 02:20:23;;;;;;;155.70;57.45;;;6.10;99.90;;;;;;5007621;28;20650;-75
2021/12/26 02:22:58;;;;;;;149.43;56.13;;;6.10;99.90;;;;;;5007434;28;20053;-73
2021/12/26 02:27:54;;;;;;;133.80;54.38;;;6.00;99.90;;;;;;5028378;28;20128;-73
2021/12/26 02:30:23;;;;;;;;;;;6.00;99.90;;;;;;5027882;28;20061;-75
2021/12/26 02:32:58;;;;;;;135.45;52.42;;;6.00;99.90;;;;;;5027330;28;19925;-73
2021/12/26 02:35:26;;;;;;;135.23;52.83;;;6.00;99.90;;;;;;5027607;28;20038;-71
2021/12/26 02:37:54;;;;;;;;;;;6.00;99.90;;;;;;5027833;28;20409;-72
2021/12/26 02:40:22;;;;;;;;;;;5.90;99.90;;;;;;5027999;28;19928;-72
2021/12/26 02:42:50;;;;;;;117.00;47.35;;;5.90;99.90;;;;;;5026713;28;19921;-72
2021/12/26 02:45:18;;;;;;;115.45;46.95;;;5.90;99.90;;;;;;5024587;28;20049;-73
2021/12/26 02:47:48;;;;;;;;;;;5.90;99.90;;;;;;5028226;28;20044;-73
2021/12/26 02:50:22;;;;;;;101.90;43.35;;;5.90;99.90;;;;;;5028433;28;19921;-73
2021/12/26 02:52:51;;;;;;;104.65;43.40;;;5.90;99.90;;;;;;5027394;28;20046;-73
2021/12/26 02:55:20;;;;;;;107.20;45.63;;;5.90;99.90;;;;;;5026625;28;20060;-76
2021/12/26 02:57:50;;;;;;;107.15;44.88;;;5.90;99.90;;;;;;4994423;28;20068;-73
2021/12/26 03:00:21;;;;;;;114.00;46.35;;;5.90;99.90;;;;;;5028529;28;20053;-73
2021/12/26 03:02:52;;;;;;;103.55;43.13;;;6.00;99.90;;;;;;5028859;28;20545;-74
2021/12/26 03:05:24;;;;;;;105.53;44.13;;;5.90;99.90;;;;;;5010599;28;20046;-75
2021/12/26 03:07:52;;;;;;;108.20;45.30;;;5.90;99.90;;;;;;5026836;28;20045;-74
2021/12/26 03:10:23;;;;;;;101.22;43.95;;;5.90;99.90;;;;;;5026594;28;20042;-74
2021/12/26 03:12:56;;;;;;;105.05;44.30;;;5.80;99.90;;;;;;5027228;28;20057;-76
2021/12/26 03:15:26;;;;;;;99.68;41.75;;;5.90;99.90;;;;;;5010760;28;20041;-74
2021/12/26 03:17:56;;;;;;;99.60;40.90;;;5.90;99.90;;;;;;4994080;28;20410;-73
2021/12/26 03:20:32;;;;;;;99.35;41.08;;;5.90;99.90;;;;;;5026408;28;20136;-75
2021/12/26 03:23:01;;;;;;;89.50;38.42;;;5.90;99.90;;;;;;5026518;28;20072;-75
2021/12/26 03:25:32;;;;;;;95.65;40.17;;;5.90;99.90;;;;;;5010618;28;20033;-74
2021/12/26 03:28:03;;;;;;;89.07;38.97;;;5.90;99.90;;;;;;5026524;28;20049;-74
2021/12/26 03:30:32;;;;;;;87.88;37.80;;;5.90;99.90;;;;;;5024417;28;20061;-74
2021/12/26 03:33:03;;;;;;;86.43;38.05;;;5.90;99.90;;;;;;5006097;28;20092;-73
2021/12/26 03:35:32;;;;;;;87.75;37.38;;;5.80;99.90;;;;;;5007906;28;20053;-73
2021/12/26 03:38:02;;;;;;;85.10;37.40;;;5.80;99.90;;;;;;5006181;28;20073;-73
2021/12/26 03:40:50;;;;;;;75.40;35.50;;;5.90;99.90;;;;;;5038419;28;20060;-73
2021/12/26 03:43:19;;;;;;;80.38;34.75;;;5.80;99.90;;;;;;5026196;28;20048;-73
2021/12/26 03:45:48;;;;;;;78.38;33.50;;;5.80;99.90;;;;;;5010032;28;20041;-72
2021/12/26 03:48:19;;;;;;;78.78;35.10;;;5.80;99.90;;;;;;5026365;28;20041;-73
2021/12/26 03:50:48;;;;;;;72.30;32.55;;;5.90;99.90;;;;;;5010037;28;20057;-73
2021/12/26 03:53:17;;;;;;;;;;;5.80;99.90;;;;;;5026266;28;20053;-72
2021/12/26 03:55:47;;;;;;;68.10;31.23;;;5.80;99.90;;;;;;5042185;28;19928;-75
2021/12/26 03:58:16;;;;;;;71.35;31.38;;;5.80;99.90;;;;;;5025699;28;20490;-76
2021/12/26 04:00:46;;;;;;;73.63;33.58;;;5.90;99.90;;;;;;5026096;28;20049;-75
2021/12/26 04:03:16;;;;;;;77.53;32.60;;;5.90;99.90;;;;;;4993648;28;20057;-74
2021/12/26 04:05:57;;;;;;;69.22;31.92;;;5.90;99.90;;;;;;5025953;28;20041;-75
2021/12/26 04:08:26;;;;;;;65.65;31.15;;;5.90;99.90;;;;;;5025960;28;20042;-74
2021/12/26 04:10:54;;;;;;;65.50;29.55;;;5.90;99.90;;;;;;5026162;28;20444;-77
2021/12/26 04:13:22;;;;;;;72.18;32.10;;;5.90;99.90;;;;;;5008425;28;20037;-74
2021/12/26 04:15:49;;;;;;;70.72;31.58;;;5.90;99.90;;;;;;5022036;28;20050;-76
2021/12/26 04:18:17;;;;;;;72.72;31.63;;;5.90;99.90;;;;;;5007205;28;20054;-76
2021/12/26 04:20:46;;;;;;;70.65;31.95;;;5.90;99.90;;;;;;5005526;28;20054;-74
2021/12/26 04:23:16;;;;;;;72.20;31.52;;;5.90;99.90;;;;;;4975296;28;20069;-76
2021/12/26 04:25:44;;;;;;;;;;;5.90;99.90;;;;;;5025570;28;20414;-76
2021/12/26 04:28:17;;;;;;;;;;;5.90;99.90;;;;;;5024932;28;20399;-76
2021/12/26 04:30:46;;;;;;;64.85;28.98;;;5.90;99.90;;;;;;5008583;28;20654;-77
2021/12/26 04:33:14;;;;;;;72.53;30.83;;;5.90;99.90;;;;;;5026096;28;20052;-74
2021/12/26 04:35:42;;;;;;;68.57;30.98;;;5.90;99.90;;;;;;4992119;28;20624;-76
2021/12/26 04:38:11;;;;;;;76.97;32.08;;;5.90;99.90;;;;;;5004003;28;20524;-76
2021/12/26 04:40:40;;;;;;;76.55;32.97;;;5.90;99.90;;;;;;5006250;28;20050;-76
2021/12/26 04:43:33;;;;;;;72.82;31.77;;;6.00;99.90;;;;;;5005347;28;20820;-75
2021/12/26 04:46:14;;;;;;;80.03;33.17;;;6.00;99.90;;;;;;5005408;28;20530;-74
2021/12/26 04:48:56;;;;;;;71.32;32.45;;;6.00;99.90;;;;;;4995385;28;20045;-74
2021/12/26 04:51:23;;;;;;;83.57;34.20;;;6.00;99.90;;;;;;5024897;28;20049;-73
2021/12/26 04:53:59;;;;;;;79.03;32.95;;;6.00;99.90;;;;;;5025261;28;20058;-73
2021/12/26 04:56:26;;;;;;;;;;;6.00;99.90;;;;;;5025462;28;20045;-73
2021/12/26 04:58:54;;;;;;;77.72;33.55;;;6.00;99.90;;;;;;5023607;28;19932;-74
2021/12/26 05:01:22;;;;;;;91.78;35.00;;;6.00;99.90;;;;;;5023187;28;20152;-75
2021/12/26 05:03:50;;;;;;;83.32;35.13;;;6.00;99.90;;;;;;5005548;28;20049;-74
2021/12/26 05:06:17;;;;;;;78.88;33.28;;;6.00;99.90;;;;;;5006678;28;20049;-75
2021/12/26 05:08:45;;;;;;;89.90;32.33;;;6.10;99.90;;;;;;5005297;28;20046;-75
2021/12/26 05:11:13;;;;;;;88.70;29.65;;;6.10;99.90;;;;;;5006791;28;20050;-75
2021/12/26 05:13:41;;;;;;;86.30;30.73;;;6.20;99.90;;;;;;5005549;28;20640;-73
2021/12/26 05:16:08;;;;;;;87.97;31.20;;;6.30;99.90;;;;;;5006252;28;20564;-73
2021/12/26 05:18:38;;;;;;;100.03;34.10;;;6.30;99.90;;;;;;5021851;28;20053;-74
2021/12/26 05:21:07;;;;;;;92.43;31.88;;;6.40;99.90;;;;;;5005315;28;20045;-74
2021/12/26 05:23:36;;;;;;;89.97;32.28;;;6.50;99.90;;;;;;5026085;28;20046;-73
2021/12/26 05:26:05;;;;;;;89.15;33.45;;;6.60;99.90;;;;;;5025059;28;20041;-73
2021/12/26 05:28:34;;;;;;;84.38;29.92;;;6.60;99.90;;;;;;5007969;28;20053;-73
2021/12/26 05:31:04;;;;;;;80.25;31.20;;;6.70;99.90;;;;;;5009143;28;20041;-74
2021/12/26 05:33:41;;;;;;;90.37;31.13;;;6.70;99.90;;;;;;5028676;28;20060;-74
2021/12/26 05:36:09;;;;;;;85.95;31.10;;;6.80;99.90;;;;;;5028298;28;20068;-74
2021/12/26 05:38:40;;;;;;;70.30;27.10;;;6.80;99.90;;;;;;5028334;28;20605;-73
2021/12/26 05:41:08;;;;;;;78.18;29.88;;;6.80;99.90;;;;;;5008234;28;20474;-74
2021/12/26 05:43:42;;;;;;;78.15;30.40;;;6.80;99.90;;;;;;5008521;28;20046;-74
2021/12/26 05:46:10;;;;;;;78.25;28.88;;;6.80;99.90;;;;;;5008620;28;20042;-73
2021/12/26 05:48:38;;;;;;;82.43;30.42;;;6.90;99.90;;;;;;4991708;28;20054;-76
2021/12/26 05:51:17;;;;;;;72.30;25.95;;;6.90;99.90;;;;;;4993276;28;20042;-75
2021/12/26 05:54:05;;;;;;;63.35;25.83;;;6.90;99.90;;;;;;5017838;28;20082;-73
2021/12/26 05:56:32;;;;;;;70.63;26.55;;;6.90;99.90;;;;;;5027445;28;20379;-74
2021/12/26 05:59:01;;;;;;;66.93;26.33;;;6.90;99.90;;;;;;5027662;28;20056;-73
2021/12/26 06:01:30;;;;;;;66.68;25.45;;;6.90;99.90;;;;;;5027958;28;20565;-73
2021/12/26 06:03:58;;;;;;;68.63;27.70;;;6.90;99.90;;;;;;5027750;28;20049;-75
2021/12/26 06:06:25;;;;;;;69.22;25.20;;;6.90;99.90;;;;;;5027478;28;20048;-74
2021/12/26 06:08:54;;;;;;;73.05;27.38;;;7.00;99.90;;;;;;4995056;28;20073;-74
2021/12/26 06:11:22;;;;;;;73.53;28.02;;;6.90;99.90;;;;;;5026750;28;20429;-72
2021/12/26 06:13:49;;;;;;;70.40;26.88;;;7.00;99.90;;;;;;5027367;28;20042;-75
2021/12/26 06:16:21;;;;;;;80.78;28.33;;;7.00;99.90;;;;;;5027486;28;20053;-76
2021/12/26 06:18:49;;;;;;;83.05;28.38;;;6.90;99.90;;;;;;5027449;28;20045;-73
2021/12/26 06:21:35;;;;;;;81.28;26.70;;;7.00;99.90;;;;;;5027725;28;20693;-74
2021/12/26 06:24:06;;;;;;;97.50;31.17;;;7.00;99.90;;;;;;5027607;28;20068;-76
2021/12/26 06:26:34;;;;;;;;;;;7.00;99.90;;;;;;5027485;28;20072;-73
2021/12/26 06:29:09;;;;;;;89.07;29.42;;;7.00;99.90;;;;;;5027361;28;19928;-73
2021/12/26 06:31:41;;;;;;;100.53;31.08;;;7.00;99.90;;;;;;5028566;28;20052;-75
2021/12/26 06:34:27;;;;;;;117.18;32.17;;;7.10;99.90;;;;;;5027113;28;20049;-76
2021/12/26 06:37:14;;;;;;;102.90;31.67;;;7.00;99.90;;;;;;5027020;28;20057;-76
2021/12/26 06:40:00;;;;;;;112.90;33.30;;;7.10;99.90;;;;;;5028414;28;20052;-77
2021/12/26 06:42:48;;;;;;;107.38;32.10;;;7.10;99.90;;;;;;5028415;28;20041;-76
2021/12/26 06:45:36;;;;;;;116.68;33.13;;;7.10;99.90;;;;;;5006240;28;20053;-75
2021/12/26 06:48:43;;;;;;;120.53;36.00;;;7.10;99.90;;;;;;4974879;28;20057;-76
2021/12/26 06:51:11;;;;;;;;;;;7.10;99.90;;;;;;4954337;28;20527;-74
2021/12/26 06:53:38;;;;;;;120.85;34.90;;;7.10;99.90;;;;;;4997493;28;20305;-74
2021/12/26 06:56:06;;;;;;;123.43;36.65;;;7.10;99.90;;;;;;5026437;28;20048;-73
2021/12/26 06:58:34;;;;;;;135.60;35.67;;;7.10;99.90;;;;;;5026124;28;20045;-75
2021/12/26 07:01:03;;;;;;;128.27;33.90;;;7.20;99.90;;;;;;5026454;28;20049;-76
2021/12/26 07:03:31;;;;;;;132.20;33.38;;;7.10;99.90;;;;;;5010140;28;20049;-74
2021/12/26 07:05:59;;;;;;;135.27;34.63;;;7.20;99.90;;;;;;5004978;28;20038;-77
2021/12/26 07:08:27;;;;;;;146.27;38.30;;;7.10;99.90;;;;;;5018790;28;20053;-76
2021/12/26 07:10:58;;;;;;;133.55;36.03;;;7.20;99.90;;;;;;5017033;28;20045;-75
2021/12/26 07:13:27;;;;;;;130.88;37.30;;;7.20;99.90;;;;;;5024984;28;20041;-75
2021/12/26 07:15:55;;;;;;;134.23;37.22;;;7.20;99.90;;;;;;5022898;28;20052;-75
2021/12/26 07:18:22;;;;;;;132.25;34.40;;;7.20;99.90;;;;;;5020203;28;20061;-75
2021/12/26 07:20:52;;;;;;;134.32;36.55;;;7.20;99.90;;;;;;5023357;28;20054;-75
2021/12/26 07:23:23;;;;;;;125.85;35.47;;;7.20;99.90;;;;;;5026277;28;20386;-77
2021/12/26 07:25:54;;;;;;;131.63;35.28;;;7.20;99.90;;;;;;5024910;28;20045;-76
2021/12/26 07:28:23;;;;;;;127.47;32.70;;;7.20;99.90;;;;;;5019009;28;20053;-74
2021/12/26 07:31:26;;;;;;;116.22;33.03;;;7.30;99.90;;;;;;5029212;28;20050;-72
2021/12/26 07:33:59;;;;;;;119.85;33.78;;;7.30;99.90;;;;;;5025571;28;20049;-75
2021/12/26 07:36:28;;;;;;;119.95;33.92;;;7.30;99.90;;;;;;5006666;28;20057;-73
2021/12/26 07:38:56;;;;;;;126.07;33.72;;;7.30;99.90;;;;;;5021427;28;20030;-72
2021/12/26 07:41:30;;;;;;;112.70;30.50;;;7.30;99.90;;;;;;5005960;28;20057;-75
2021/12/26 07:43:59;;;;;;;106.90;30.52;;;7.30;99.90;;;;;;4989456;28;20057;-74
2021/12/26 07:46:45;;;;;;;87.25;27.02;;;7.40;99.90;;;;;;5006309;28;20053;-75
2021/12/26 07:49:22;;;;;;;89.68;26.38;;;7.30;99.90;;;;;;4991425;28;20046;-75
2021/12/26 07:52:17;;;;;;;78.60;24.25;;;7.30;99.90;;;;;;5006887;28;20487;-76
2021/12/26 07:55:04;;;;;;;73.75;22.40;;;7.40;99.90;;;;;;5019757;28;20057;-74
2021/12/26 07:57:50;;;;;;;68.50;21.15;;;7.40;99.90;;;;;;5022266;28;20474;-72
2021/12/26 08:00:36;;;;;;;73.88;22.50;;;7.40;99.90;;;;;;5023529;28;20052;-73
2021/12/26 08:03:19;;;;;;;72.55;22.98;;;7.40;99.90;;;;;;5003839;28;20046;-75
2021/12/26 08:06:20;;;;;;;80.38;23.73;;;7.40;99.90;;;;;;5026149;28;20049;-73
2021/12/26 08:08:51;;;;;;;79.18;22.30;;;7.40;99.90;;;;;;5025314;28;20042;-74
2021/12/26 08:11:19;;;;;;;74.03;22.42;;;7.40;99.90;;;;;;4991247;28;20061;-74
2021/12/26 08:13:46;;;;;;;70.80;22.40;;;7.40;99.90;;;;;;5003262;28;20065;-76
2021/12/26 08:16:14;;;;;;;75.45;23.02;;;7.40;99.90;;;;;;5005134;28;20045;-76
2021/12/26 08:18:42;;;;;;;67.82;20.50;;;7.50;99.90;;;;;;5005301;28;20054;-75
2021/12/26 08:21:10;;;;;;;;;;;7.40;99.90;;;;;;5004216;28;20073;-75
2021/12/26 08:23:38;;;;;;;65.75;20.08;;;7.50;99.90;;;;;;5007028;28;19933;-73
2021/12/26 08:26:05;;;;;;;57.30;18.35;;;7.50;99.90;;;;;;5023114;28;20049;-73
2021/12/26 08:28:33;;;;;;;55.65;18.13;;;7.50;99.90;;;;;;5007069;28;20052;-73
2021/12/26 08:31:01;;;;;;;61.60;18.02;;;7.50;99.90;;;;;;5006730;28;20052;-72
2021/12/26 08:33:29;;;;;;;48.63;17.52;;;7.50;99.90;;;;;;5024543;28;20406;-74
2021/12/26 08:35:57;;;;;;;44.90;16.00;;;7.50;99.90;;;;;;5023061;28;20049;-72
2021/12/26 08:38:26;;;;;;;47.08;16.30;;;7.50;99.90;;;;;;5025265;28;20045;-73
2021/12/26 08:40:55;;;;;;;43.05;15.82;;;7.50;99.90;;;;;;5024803;28;20372;-73
2021/12/26 08:43:23;;;;;;;44.78;15.70;;;7.50;99.90;;;;;;5025540;28;20055;-75
2021/12/26 08:45:51;;;;;;;44.58;15.88;;;7.50;99.90;;;;;;5025449;28;20054;-77
2021/12/26 08:48:18;;;;;;;;;;;7.50;99.90;;;;;;5026344;28;20066;-75
2021/12/26 08:50:46;;;;;;;39.97;15.10;;;7.50;99.90;;;;;;5024529;28;19940;-74
2021/12/26 08:53:14;;;;;;;34.97;13.77;;;7.50;99.90;;;;;;5026112;28;20049;-73
2021/12/26 08:55:43;;;;;;;41.83;14.95;;;7.50;99.90;;;;;;4992456;28;20409;-74
2021/12/26 08:58:10;;;;;;;33.28;13.32;;;7.50;99.90;;;;;;5025730;28;20490;-75
2021/12/26 09:00:38;;;;;;;30.95;12.88;;;7.60;99.90;;;;;;5021145;28;20045;-74
2021/12/26 09:03:06;;;;;;;30.13;11.88;;;7.50;99.90;;;;;;5004007;28;20050;-73
2021/12/26 09:05:34;;;;;;;30.67;11.90;;;7.60;99.90;;;;;;5006297;28;20062;-74
2021/12/26 09:08:02;;;;;;;30.67;11.15;;;7.60;99.90;;;;;;5007573;28;20514;-75
2021/12/26 09:10:30;;;;;;;30.48;11.88;;;7.60;99.90;;;;;;5009560;28;20053;-73
2021/12/26 09:12:58;;;;;;;29.38;12.15;;;7.60;99.90;;;;;;5029626;28;20050;-73
2021/12/26 09:15:25;;;;;;;33.30;12.45;;;7.60;99.90;;;;;;5028499;28;20374;-75
2021/12/26 09:17:53;;;;;;;28.75;12.18;;;7.60;99.90;;;;;;5028522;28;20045;-73
2021/12/26 09:20:23;;;;;;;30.52;12.43;;;7.60;99.90;;;;;;5029733;28;20513;-73
2021/12/26 09:22:51;;;;;;;30.88;11.82;;;7.70;99.90;;;;;;5028424;28;20050;-73
2021/12/26 09:25:20;;;;;;;29.52;10.98;;;7.70;99.90;;;;;;5028755;28;20049;-75
2021/12/26 09:27:47;;;;;;;21.17;9.70;;;7.70;99.90;;;;;;5029320;28;20509;-73
2021/12/26 09:30:15;;;;;;;27.80;11.02;;;7.70;99.90;;;;;;5027519;28;20045;-75
2021/12/26 09:32:43;;;;;;;29.77;10.18;;;7.70;99.90;;;;;;5009691;28;20415;-74
2021/12/26 09:35:11;;;;;;;22.98;9.90;;;7.70;99.90;;;;;;5009645;28;20052;-76
2021/12/26 09:37:39;;;;;;;26.92;9.93;;;7.70;99.90;;;;;;5008334;28;20061;-76
2021/12/26 09:40:08;;;;;;;23.75;10.13;;;7.80;99.90;;;;;;5008439;28;20058;-73
2021/12/26 09:42:37;;;;;;;28.15;11.40;;;7.80;99.90;;;;;;5009448;28;20034;-74
2021/12/26 09:45:08;;;;;;;28.30;10.50;;;7.80;99.90;;;;;;5009520;28;20058;-75
2021/12/26 09:47:37;;;;;;;27.33;10.13;;;7.80;99.90;;;;;;4992345;28;20401;-74
2021/12/26 09:50:08;;;;;;;24.42;9.98;;;7.80;99.90;;;;;;5008142;28;20049;-74
2021/12/26 09:52:39;;;;;;;22.67;10.40;;;7.80;99.90;;;;;;5009244;28;20569;-74
2021/12/26 09:55:07;;;;;;;24.05;10.18;;;7.90;99.90;;;;;;5000971;28;20496;-75
2021/12/26 09:57:35;;;;;;;22.40;10.63;;;7.90;99.90;;;;;;5013304;28;20046;-76
2021/12/26 10:00:22;;;;;;;25.42;10.88;;;7.90;99.90;;;;;;5014539;28;20056;-75
2021/12/26 10:03:11;;;;;;;28.92;11.85;;;8.00;99.90;;;;;;5009104;28;20122;-75
2021/12/26 10:06:14;;;;;;;23.27;10.32;;;8.00;99.90;;;;;;5022401;28;20041;-74
2021/12/26 10:08:55;;;;;;;24.77;10.30;;;8.00;99.90;;;;;;5025739;28;20049;-74
2021/12/26 10:11:26;;;;;;;24.40;10.85;;;8.10;99.90;;;;;;5023807;28;20790;-73
2021/12/26 10:14:17;;;;;;;23.90;10.75;;;8.10;99.90;;;;;;5022917;28;20065;-73
2021/12/26 10:16:48;;;;;;;27.90;11.10;;;8.10;99.90;;;;;;5007363;28;20050;-72
2021/12/26 10:19:16;;;;;;;30.20;11.30;;;8.10;99.90;;;;;;5007766;28;20045;-74
2021/12/26 10:21:49;;;;;;;28.20;11.70;;;8.20;99.90;;;;;;5018661;28;20065;-74
2021/12/26 10:24:23;;;;;;;27.40;11.38;;;8.20;99.90;;;;;;5025572;28;20056;-72
2021/12/26 10:27:12;;;;;;;25.67;11.15;;;8.30;99.90;;;;;;5023798;28;20050;-74
2021/12/26 10:30:01;;;;;;;26.30;11.15;;;8.30;99.90;;;;;;5010408;28;20080;-74
2021/12/26 10:32:32;;;;;;;24.27;10.57;;;8.30;99.90;;;;;;5021815;28;20042;-74
2021/12/26 10:35:07;;;;;;;26.70;11.70;;;8.40;99.90;;;;;;5011319;28;20479;-74
2021/12/26 10:37:52;;;;;;;23.70;10.98;;;8.40;99.90;;;;;;5005301;28;20057;-72
2021/12/26 10:40:28;;;;;;;23.85;10.55;;;8.50;99.90;;;;;;5009206;28;20052;-74
2021/12/26 10:43:10;;;;;;;25.73;11.90;;;8.50;99.90;;;;;;5026235;28;20541;-73
2021/12/26 10:45:38;;;;;;;24.73;10.93;;;8.50;99.90;;;;;;5027097;28;20041;-74
2021/12/26 10:48:07;;;;;;;23.65;10.45;;;8.60;99.90;;;;;;5026671;28;20049;-74
2021/12/26 10:50:40;;;;;;;25.23;11.52;;;8.60;99.90;;;;;;5028238;28;20049;-75
2021/12/26 10:53:12;;;;;;;23.42;11.20;;;8.60;99.90;;;;;;5025624;28;20660;-75
2021/12/26 10:55:47;;;;;;;21.83;10.13;;;8.70;99.90;;;;;;5025512;28;20046;-74
2021/12/26 10:58:18;;;;;;;21.92;10.30;;;8.70;99.90;;;;;;5026479;28;20060;-73
2021/12/26 11:00:49;;;;;;;22.92;10.60;;;8.70;99.90;;;;;;5027627;28;20052;-77
2021/12/26 11:03:30;;;;;;;24.33;10.85;;;8.70;99.90;;;;;;5027713;28;20050;-72
2021/12/26 11:06:06;;;;;;;22.35;10.23;;;8.80;99.90;;;;;;5027359;28;20057;-74
2021/12/26 11:08:37;;;;;;;26.48;11.13;;;8.80;99.90;;;;;;5025631;28;20057;-73
2021/12/26 11:11:22;;;;;;;19.20;9.60;;;8.80;99.90;;;;;;5027641;28;20057;-72
2021/12/26 11:14:01;;;;;;;25.73;10.85;;;8.90;99.90;;;;;;5027518;28;20041;-72
2021/12/26 11:16:38;;;;;;;24.23;10.25;;;8.90;99.90;;;;;;5027341;28;20048;-76
2021/12/26 11:19:06;;;;;;;21.45;10.45;;;8.90;99.90;;;;;;5027487;28;20049;-73
2021/12/26 11:21:35;;;;;;;21.90;10.50;;;9.00;99.90;;;;;;5026058;28;20060;-73
2021/12/26 11:24:04;;;;;;;21.67;10.70;;;9.00;99.90;;;;;;5024866;28;20044;-75
2021/12/26 11:26:32;;;;;;;16.55;9.48;;;9.10;99.90;;;;;;5026533;28;20081;-74
2021/12/26 11:28:59;;;;;;;19.33;10.35;;;9.10;99.90;;;;;;5022299;28;20505;-74
2021/12/26 11:31:29;;;;;;;15.90;9.30;;;9.10;99.90;;;;;;5005687;28;20513;-74
2021/12/26 11:34:04;;;;;;;16.50;9.32;;;9.10;99.90;;;;;;5006436;28;20056;-74
2021/12/26 11:36:32;;;;;;;18.42;9.73;;;9.20;99.90;;;;;;5022284;28;20593;-72
2021/12/26 11:39:22;;;;;;;18.33;9.38;;;9.20;99.90;;;;;;5005291;28;20065;-72
2021/12/26 11:42:32;;;;;;;17.63;9.45;;;9.20;99.90;;;;;;5037215;28;20053;-73
2021/12/26 11:45:27;;;;;;;18.77;9.85;;;9.20;99.90;;;;;;5017208;28;20062;-73
2021/12/26 11:48:25;;;;;;;17.25;9.88;;;9.20;99.90;;;;;;5005865;28;20057;-72
2021/12/26 11:51:59;;;;;;;16.90;9.50;;;9.30;99.90;;;;;;4945774;29;20055;-73
2021/12/26 11:55:13;;;;;;;19.05;9.07;;;9.30;99.90;;;;;;5019832;28;20056;-74
2021/12/26 11:58:22;;;;;;;18.13;9.55;;;9.30;99.90;;;;;;5025068;28;20056;-72
2021/12/26 12:00:52;;;;;;;16.13;9.40;;;9.30;99.90;;;;;;5025011;28;20053;-72
2021/12/26 12:03:23;;;;;;;19.15;9.63;;;9.30;99.90;;;;;;5016833;28;20061;-71
2021/12/26 12:05:52;;;;;;;19.63;9.95;;;9.30;99.90;;;;;;5020759;28;20057;-73
2021/12/26 12:08:23;;;;;;;16.48;9.60;;;9.30;99.90;;;;;;5008346;28;20049;-72
2021/12/26 12:10:54;;;;;;;19.60;11.63;;;9.40;99.90;;;;;;5020896;28;20329;-73
2021/12/26 12:13:23;;;;;;;19.30;11.18;;;9.40;99.90;;;;;;5005952;28;20052;-73
2021/12/26 12:15:52;;;;;;;19.88;11.90;;;9.40;99.90;;;;;;4991210;28;20077;-74
2021/12/26 12:18:20;;;;;;;17.80;10.10;;;9.40;99.90;;;;;;5008328;28;20400;-74
2021/12/26 12:21:16;;;;;;;15.45;9.85;;;9.30;99.90;;;;;;5025959;28;20064;-74
2021/12/26 12:23:57;;;;;;;16.40;8.73;;;9.40;99.90;;;;;;5028353;28;20050;-75
2021/12/26 12:26:40;;;;;;;19.75;10.50;;;9.30;99.90;;;;;;5007531;28;20060;-75
2021/12/26 12:29:10;;;;;;;20.10;10.80;;;9.40;99.90;;;;;;5025993;28;20492;-74
2021/12/26 12:31:38;;;;;;;17.65;9.98;;;9.40;99.90;;;;;;5026298;28;20072;-73
2021/12/26 12:34:10;;;;;;;15.88;8.77;;;9.40;99.90;;;;;;5021991;28;20061;-73
2021/12/26 12:36:42;;;;;;;17.75;9.88;;;9.50;99.90;;;;;;5004385;28;20049;-75
2021/12/26 12:39:18;;;;;;;14.45;8.23;;;9.50;99.90;;;;;;5005392;28;20042;-75
2021/12/26 12:41:51;;;;;;;16.45;9.30;;;9.60;99.90;;;;;;5024488;28;20052;-72
2021/12/26 12:44:44;;;;;;;13.57;7.85;;;9.60;99.90;;;;;;5022462;28;20049;-73
2021/12/26 12:47:24;;;;;;;12.88;7.45;;;9.70;99.90;;;;;;5023083;28;20043;-73
2021/12/26 12:49:54;;;;;;;12.55;7.32;;;9.80;99.90;;;;;;5008689;28;20334;-74
2021/12/26 12:52:50;;;;;;;13.65;7.47;;;9.80;99.90;;;;;;5024633;28;20053;-74
2021/12/26 12:55:38;;;;;;;14.15;7.13;;;9.90;99.90;;;;;;5025817;28;20051;-74
2021/12/26 12:58:20;;;;;;;9.80;6.65;;;9.90;99.90;;;;;;5026001;28;20057;-74
2021/12/26 13:00:49;;;;;;;14.10;7.60;;;10.00;99.90;;;;;;5024709;28;20285;-73
2021/12/26 13:03:19;;;;;;;15.63;7.55;;;10.00;99.90;;;;;;5025892;28;20052;-74
2021/12/26 13:05:49;;;;;;;13.00;7.20;;;10.10;99.90;;;;;;5023828;28;20050;-74
2021/12/26 13:08:19;;;;;;;10.70;6.75;;;10.10;99.90;;;;;;5024595;28;20057;-72
2021/12/26 13:10:54;;;;;;;11.85;6.85;;;10.20;99.90;;;;;;5026016;28;20053;-73
2021/12/26 13:13:22;;;;;;;11.05;7.03;;;10.20;99.90;;;;;;5024400;28;20052;-72